Time,TemperatureF,DewpointF,PressureIn,WindDirection,WindDirectionDegrees,WindSpeedMPH,WindSpeedGustMPH,Humidity,HourlyPrecipIn,Conditions,Clouds,dailyrainin,SoftwareType,DateUTC
2013-04-21 00:08:00,42.3,27.0,30.60,NE,49,1.0,5.0,54,0.00,,,0.00,weatherlink.com 1.10,2013-04-21 04:08:00,
2013-04-21 00:23:00,43.0,26.0,30.61,NNE,32,0.0,6.0,52,0.00,,,0.00,weatherlink.com 1.10,2013-04-21 04:23:00,
2013-04-21 00:38:00,42.7,26.0,30.62,NE,37,0.0,2.0,53,0.00,,,0.00,weatherlink.com 1.10,2013-04-21 04:38:00,
2013-04-21 00:53:00,41.9,27.0,30.62,NE,50,0.0,1.0,56,0.00,,,0.00,weatherlink.com 1.10,2013-04-21 04:53:00,
2013-04-21 01:08:00,41.1,27.0,30.63,ENE,59,0.0,0.0,57,0.00,,,0.00,weatherlink.com 1.10,2013-04-21 05:08:00,
2013-04-21 01:23:00,40.1,27.0,30.63,ENE,59,0.0,0.0,61,0.00,,,0.00,weatherlink.com 1.10,2013-04-21 05:23:00,
2013-04-21 01:38:00,39.4,29.0,30.63,ENE,59,0.0,0.0,67,0.00,,,0.00,weatherlink.com 1.10,2013-04-21 05:38:00,
2013-04-21 01:53:00,38.7,29.0,30.63,ENE,59,0.0,0.0,69,0.00,,,0.00,weatherlink.com 1.10,2013-04-21 05:53:00,
2013-04-21 02:08:00,37.2,30.0,30.64,ENE,59,2.0,2.0,76,0.00,,,0.00,weatherlink.com 1.10,2013-04-21 06:08:00,
2013-04-21 02:23:00,37.7,28.0,30.64,ENE,65,0.0,4.0,68,0.00,,,0.00,weatherlink.com 1.10,2013-04-21 06:23:00,
2013-04-21 02:38:00,38.2,27.0,30.64,ENE,65,1.0,4.0,64,0.00,,,0.00,weatherlink.com 1.10,2013-04-21 06:38:00,
2013-04-21 02:53:00,38.9,27.0,30.65,ENE,64,0.0,4.0,63,0.00,,,0.00,weatherlink.com 1.10,2013-04-21 06:53:00,
2013-04-21 03:08:00,37.9,27.0,30.65,ENE,63,0.0,4.0,65,0.00,,,0.00,weatherlink.com 1.10,2013-04-21 07:08:00,
2013-04-21 03:23:00,37.4,29.0,30.66,ENE,63,0.0,1.0,72,0.00,,,0.00,weatherlink.com 1.10,2013-04-21 07:23:00,
2013-04-21 03:38:00,36.0,29.0,30.66,ENE,63,0.0,1.0,75,0.00,,,0.00,weatherlink.com 1.10,2013-04-21 07:38:00,
2013-04-21 03:53:00,35.1,28.0,30.67,ENE,63,0.0,0.0,76,0.00,,,0.00,weatherlink.com 1.10,2013-04-21 07:53:00,
2013-04-21 04:08:00,34.6,28.0,30.68,ENE,63,0.0,0.0,77,0.00,,,0.00,weatherlink.com 1.10,2013-04-21 08:08:00,
2013-04-21 04:23:00,34.8,27.0,30.68,ENE,63,0.0,0.0,74,0.00,,,0.00,weatherlink.com 1.10,2013-04-21 08:23:00,
2013-04-21 04:38:00,35.3,28.0,30.69,ENE,63,0.0,0.0,74,0.00,,,0.00,weatherlink.com 1.10,2013-04-21 08:38:00,
2013-04-21 04:54:00,34.8,28.0,30.70,ENE,63,0.0,0.0,76,0.00,,,0.00,weatherlink.com 1.10,2013-04-21 08:54:00,
2013-04-21 05:09:00,34.4,27.0,30.71,ENE,63,0.0,0.0,75,0.00,,,0.00,weatherlink.com 1.10,2013-04-21 09:09:00,
2013-04-21 05:24:00,34.7,27.0,30.71,ENE,63,0.0,0.0,73,0.00,,,0.00,weatherlink.com 1.10,2013-04-21 09:24:00,
2013-04-21 05:39:00,33.8,28.0,30.72,ENE,63,0.0,0.0,78,0.00,,,0.00,weatherlink.com 1.10,2013-04-21 09:39:00,
2013-04-21 05:54:00,33.4,27.0,30.72,ENE,63,0.0,1.0,77,0.00,,,0.00,weatherlink.com 1.10,2013-04-21 09:54:00,
2013-04-21 06:09:00,33.4,27.0,30.74,ENE,63,0.0,0.0,78,0.00,,,0.00,weatherlink.com 1.10,2013-04-21 10:09:00,
2013-04-21 06:24:00,32.6,27.0,30.74,ENE,63,0.0,0.0,80,0.00,,,0.00,weatherlink.com 1.10,2013-04-21 10:24:00,
2013-04-21 06:39:00,34.0,27.0,30.75,NE,52,1.0,5.0,74,0.00,,,0.00,weatherlink.com 1.10,2013-04-21 10:39:00,
2013-04-21 06:54:00,35.2,27.0,30.77,NE,41,2.0,6.0,71,0.00,,,0.00,weatherlink.com 1.10,2013-04-21 10:54:00,
2013-04-21 07:09:00,35.6,27.0,30.78,NE,36,1.0,7.0,70,0.00,,,0.00,weatherlink.com 1.10,2013-04-21 11:09:00,
2013-04-21 07:24:00,35.7,27.0,30.79,NE,37,0.0,6.0,70,0.00,,,0.00,weatherlink.com 1.10,2013-04-21 11:24:00,
2013-04-21 07:39:00,36.1,27.0,30.80,ENE,57,5.0,6.0,70,0.00,,,0.00,weatherlink.com 1.10,2013-04-21 11:39:00,
2013-04-21 07:54:00,36.4,27.0,30.81,NE,46,5.0,7.0,69,0.00,,,0.00,weatherlink.com 1.10,2013-04-21 11:54:00,
2013-04-21 08:09:00,37.2,27.0,30.81,ENE,67,2.0,6.0,68,0.00,,,0.00,weatherlink.com 1.10,2013-04-21 12:09:00,
2013-04-21 08:24:00,38.0,27.0,30.82,NE,34,1.0,8.0,64,0.00,,,0.00,weatherlink.com 1.10,2013-04-21 12:24:00,
2013-04-21 08:39:00,38.9,25.0,30.82,ENE,63,3.0,10.0,57,0.00,,,0.00,weatherlink.com 1.10,2013-04-21 12:39:00,
2013-04-21 08:54:00,38.9,24.0,30.82,East,82,5.0,14.0,56,0.00,,,0.00,weatherlink.com 1.10,2013-04-21 12:54:00,
2013-04-21 09:09:00,39.2,24.0,30.82,North,11,4.0,14.0,54,0.00,,,0.00,weatherlink.com 1.10,2013-04-21 13:09:00,
2013-04-21 09:24:00,39.9,25.0,30.83,NNE,15,6.0,15.0,55,0.00,,,0.00,weatherlink.com 1.10,2013-04-21 13:24:00,
2013-04-21 09:39:00,40.5,25.0,30.83,NE,39,13.0,16.0,54,0.00,,,0.00,weatherlink.com 1.10,2013-04-21 13:39:00,
2013-04-21 09:54:00,41.4,25.0,30.83,NE,55,4.0,13.0,52,0.00,,,0.00,weatherlink.com 1.10,2013-04-21 13:54:00,
2013-04-21 10:09:00,42.0,25.0,30.84,NW,325,6.0,12.0,51,0.00,,,0.00,weatherlink.com 1.10,2013-04-21 14:09:00,
2013-04-21 10:24:00,43.3,26.0,30.84,NNE,31,4.0,11.0,50,0.00,,,0.00,weatherlink.com 1.10,2013-04-21 14:24:00,
2013-04-21 10:39:00,43.4,25.0,30.84,North,5,11.0,11.0,48,0.00,,,0.00,weatherlink.com 1.10,2013-04-21 14:39:00,
2013-04-21 10:54:00,44.0,24.0,30.83,North,9,6.0,12.0,46,0.00,,,0.00,weatherlink.com 1.10,2013-04-21 14:54:00,
2013-04-21 11:09:00,44.9,23.0,30.83,NE,48,5.0,11.0,43,0.00,,,0.00,weatherlink.com 1.10,2013-04-21 15:09:00,
2013-04-21 11:24:00,45.2,24.0,30.83,NE,50,3.0,10.0,44,0.00,,,0.00,weatherlink.com 1.10,2013-04-21 15:24:00,
2013-04-21 11:39:00,45.6,24.0,30.83,NNE,26,3.0,8.0,43,0.00,,,0.00,weatherlink.com 1.10,2013-04-21 15:39:00,
2013-04-21 11:54:00,45.9,25.0,30.82,North,355,8.0,10.0,44,0.00,,,0.00,weatherlink.com 1.10,2013-04-21 15:54:00,
2013-04-21 12:09:00,46.4,25.0,30.82,North,9,1.0,7.0,43,0.00,,,0.00,weatherlink.com 1.10,2013-04-21 16:09:00,
2013-04-21 12:24:00,47.0,26.0,30.81,NNE,26,0.0,12.0,44,0.00,,,0.00,weatherlink.com 1.10,2013-04-21 16:24:00,
2013-04-21 12:40:00,48.4,26.0,30.81,NNE,24,4.0,11.0,42,0.00,,,0.00,weatherlink.com 1.10,2013-04-21 16:40:00,
2013-04-21 12:55:00,49.1,24.0,30.80,NNW,347,4.0,9.0,38,0.00,,,0.00,weatherlink.com 1.10,2013-04-21 16:55:00,
2013-04-21 13:10:00,49.8,23.0,30.80,NNE,27,7.0,9.0,35,0.00,,,0.00,weatherlink.com 1.10,2013-04-21 17:10:00,
2013-04-21 13:25:00,50.5,23.0,30.79,NNE,24,9.0,10.0,34,0.00,,,0.00,weatherlink.com 1.10,2013-04-21 17:25:00,
2013-04-21 13:40:00,50.8,25.0,30.79,ENE,66,8.0,10.0,36,0.00,,,0.00,weatherlink.com 1.10,2013-04-21 17:40:00,
2013-04-21 13:55:00,51.2,21.0,30.79,NE,34,5.0,10.0,31,0.00,,,0.00,weatherlink.com 1.10,2013-04-21 17:55:00,
2013-04-21 14:10:00,51.6,22.0,30.78,NNE,32,1.0,8.0,31,0.00,,,0.00,weatherlink.com 1.10,2013-04-21 18:10:00,
2013-04-21 14:25:00,52.2,24.0,30.78,NNE,19,0.0,9.0,33,0.00,,,0.00,weatherlink.com 1.10,2013-04-21 18:25:00,
2013-04-21 14:40:00,52.6,23.0,30.77,ENE,71,9.0,11.0,31,0.00,,,0.00,weatherlink.com 1.10,2013-04-21 18:40:00,
2013-04-21 14:55:00,52.2,20.0,30.76,NNW,331,4.0,11.0,28,0.00,,,0.00,weatherlink.com 1.10,2013-04-21 18:55:00,
2013-04-21 15:10:00,53.1,22.0,30.75,NNE,28,5.0,9.0,30,0.00,,,0.00,weatherlink.com 1.10,2013-04-21 19:10:00,
2013-04-21 15:25:00,54.0,24.0,30.75,ENE,62,6.0,13.0,31,0.00,,,0.00,weatherlink.com 1.10,2013-04-21 19:25:00,
2013-04-21 15:40:00,53.6,23.0,30.74,NE,46,1.0,10.0,30,0.00,,,0.00,weatherlink.com 1.10,2013-04-21 19:40:00,
2013-04-21 15:55:00,53.9,24.0,30.74,NNE,19,4.0,8.0,31,0.00,,,0.00,weatherlink.com 1.10,2013-04-21 19:55:00,
2013-04-21 16:10:00,53.6,23.0,30.73,NE,52,0.0,9.0,30,0.00,,,0.00,weatherlink.com 1.10,2013-04-21 20:10:00,
2013-04-21 16:25:00,54.6,24.0,30.73,NNE,16,2.0,9.0,30,0.00,,,0.00,weatherlink.com 1.10,2013-04-21 20:25:00,
2013-04-21 16:40:00,53.9,24.0,30.73,ESE,103,5.0,11.0,31,0.00,,,0.00,weatherlink.com 1.10,2013-04-21 20:40:00,
2013-04-21 16:55:00,53.8,24.0,30.73,SE,146,1.0,9.0,31,0.00,,,0.00,weatherlink.com 1.10,2013-04-21 20:55:00,
2013-04-21 17:10:00,54.1,23.0,30.73,East,94,0.0,8.0,30,0.00,,,0.00,weatherlink.com 1.10,2013-04-21 21:10:00,
2013-04-21 17:25:00,54.1,22.0,30.73,ESE,119,5.0,11.0,29,0.00,,,0.00,weatherlink.com 1.10,2013-04-21 21:25:00,
2013-04-21 17:40:00,54.0,24.0,30.73,ESE,105,5.0,8.0,31,0.00,,,0.00,weatherlink.com 1.10,2013-04-21 21:40:00,
2013-04-21 17:55:00,53.8,24.0,30.73,ESE,102,7.0,11.0,31,0.00,,,0.00,weatherlink.com 1.10,2013-04-21 21:55:00,
2013-04-21 18:10:00,53.6,23.0,30.73,ESE,109,4.0,8.0,31,0.00,,,0.00,weatherlink.com 1.10,2013-04-21 22:10:00,
2013-04-21 18:25:00,54.0,25.0,30.73,ESE,120,0.0,6.0,32,0.00,,,0.00,weatherlink.com 1.10,2013-04-21 22:25:00,
2013-04-21 18:40:00,53.2,25.0,30.73,SSE,157,7.0,9.0,34,0.00,,,0.00,weatherlink.com 1.10,2013-04-21 22:40:00,
2013-04-21 18:55:00,52.8,26.0,30.73,ENE,73,8.0,11.0,35,0.00,,,0.00,weatherlink.com 1.10,2013-04-21 22:55:00,
2013-04-21 19:10:00,52.1,26.0,30.74,SSE,150,6.0,10.0,37,0.00,,,0.00,weatherlink.com 1.10,2013-04-21 23:10:00,
2013-04-21 19:25:00,51.6,25.0,30.74,East,92,7.0,10.0,36,0.00,,,0.00,weatherlink.com 1.10,2013-04-21 23:25:00,
2013-04-21 19:40:00,50.7,25.0,30.74,East,87,6.0,13.0,37,0.00,,,0.00,weatherlink.com 1.10,2013-04-21 23:40:00,
2013-04-21 19:55:00,50.0,25.0,30.75,NE,52,1.0,10.0,38,0.00,,,0.00,weatherlink.com 1.10,2013-04-21 23:55:00,
2013-04-21 20:10:00,49.5,25.0,30.75,ENE,77,3.0,11.0,38,0.00,,,0.00,weatherlink.com 1.10,2013-04-22 00:10:00,
2013-04-21 20:25:00,49.1,25.0,30.76,ENE,65,0.0,5.0,39,0.00,,,0.00,weatherlink.com 1.10,2013-04-22 00:25:00,
2013-04-21 20:40:00,48.5,27.0,30.76,NNE,12,0.0,1.0,43,0.00,,,0.00,weatherlink.com 1.10,2013-04-22 00:40:00,
2013-04-21 20:55:00,47.8,26.0,30.77,ENE,57,0.0,5.0,42,0.00,,,0.00,weatherlink.com 1.10,2013-04-22 00:55:00,
2013-04-21 21:10:00,47.1,28.0,30.77,ESE,123,1.0,2.0,48,0.00,,,0.00,weatherlink.com 1.10,2013-04-22 01:10:00,
2013-04-21 21:25:00,47.4,26.0,30.78,ESE,113,0.0,4.0,43,0.00,,,0.00,weatherlink.com 1.10,2013-04-22 01:25:00,
2013-04-21 21:40:00,46.8,26.0,30.79,East,97,1.0,4.0,45,0.00,,,0.00,weatherlink.com 1.10,2013-04-22 01:40:00,
2013-04-21 21:55:00,46.6,27.0,30.79,East,89,2.0,4.0,47,0.00,,,0.00,weatherlink.com 1.10,2013-04-22 01:55:00,
2013-04-21 22:10:00,46.3,27.0,30.80,ENE,78,0.0,4.0,48,0.00,,,0.00,weatherlink.com 1.10,2013-04-22 02:10:00,
2013-04-21 22:25:00,45.8,26.0,30.80,East,87,0.0,5.0,46,0.00,,,0.00,weatherlink.com 1.10,2013-04-22 02:25:00,
2013-04-21 22:40:00,46.0,26.0,30.79,ENE,76,0.0,6.0,45,0.00,,,0.00,weatherlink.com 1.10,2013-04-22 02:40:00,
2013-04-21 22:55:00,45.3,26.0,30.79,NE,46,0.0,4.0,47,0.00,,,0.00,weatherlink.com 1.10,2013-04-22 02:55:00,
2013-04-21 23:10:00,44.2,27.0,30.79,NE,36,1.0,6.0,51,0.00,,,0.00,weatherlink.com 1.10,2013-04-22 03:10:00,
2013-04-21 23:25:00,42.9,28.0,30.80,NNE,30,0.0,0.0,55,0.00,,,0.00,weatherlink.com 1.10,2013-04-22 03:25:00,
2013-04-21 23:40:00,42.5,27.0,30.80,NE,46,0.0,5.0,55,0.00,,,0.00,weatherlink.com 1.10,2013-04-22 03:40:00,
2013-04-21 23:55:00,41.9,28.0,30.80,NE,46,0.0,2.0,58,0.00,,,0.00,weatherlink.com 1.10,2013-04-22 03:55:00,